sensor_id;sensor_type;location;lat;lon;timestamp;pressure;altitude;pressure_sealevel;temperature
68012;BMP180;54794;48.348;7.878;2023-05-07T00:00:03;98892.00;;;15.40
68012;BMP180;54794;48.348;7.878;2023-05-07T00:02:34;98895.00;;;15.60
68012;BMP180;54794;48.348;7.878;2023-05-07T00:05:02;98896.00;;;15.40
68012;BMP180;54794;48.348;7.878;2023-05-07T00:07:29;98901.00;;;15.80
68012;BMP180;54794;48.348;7.878;2023-05-07T00:09:56;98904.00;;;15.60
68012;BMP180;54794;48.348;7.878;2023-05-07T00:12:23;98903.00;;;15.70
68012;BMP180;54794;48.348;7.878;2023-05-07T00:14:50;98908.00;;;15.60
68012;BMP180;54794;48.348;7.878;2023-05-07T00:17:17;98904.00;;;15.20
68012;BMP180;54794;48.348;7.878;2023-05-07T00:19:44;98896.00;;;15.60
68012;BMP180;54794;48.348;7.878;2023-05-07T00:22:11;98891.00;;;15.60
68012;BMP180;54794;48.348;7.878;2023-05-07T00:24:38;98891.00;;;15.80
68012;BMP180;54794;48.348;7.878;2023-05-07T00:27:05;98883.00;;;15.80
68012;BMP180;54794;48.348;7.878;2023-05-07T00:29:32;98879.00;;;15.50
68012;BMP180;54794;48.348;7.878;2023-05-07T00:31:59;98878.00;;;15.30
68012;BMP180;54794;48.348;7.878;2023-05-07T00:34:26;98884.00;;;15.70
68012;BMP180;54794;48.348;7.878;2023-05-07T00:36:53;98877.00;;;15.80
68012;BMP180;54794;48.348;7.878;2023-05-07T00:39:20;98883.00;;;15.50
68012;BMP180;54794;48.348;7.878;2023-05-07T00:41:47;98878.00;;;15.20
68012;BMP180;54794;48.348;7.878;2023-05-07T00:44:14;98877.00;;;15.10
68012;BMP180;54794;48.348;7.878;2023-05-07T00:46:41;98878.00;;;15.60
68012;BMP180;54794;48.348;7.878;2023-05-07T00:49:08;98875.00;;;15.60
68012;BMP180;54794;48.348;7.878;2023-05-07T00:51:35;98872.00;;;15.60
68012;BMP180;54794;48.348;7.878;2023-05-07T00:54:03;98881.00;;;15.50
68012;BMP180;54794;48.348;7.878;2023-05-07T00:56:31;98877.00;;;15.40
68012;BMP180;54794;48.348;7.878;2023-05-07T00:58:58;98882.00;;;15.00
68012;BMP180;54794;48.348;7.878;2023-05-07T01:01:25;98889.00;;;15.10
68012;BMP180;54794;48.348;7.878;2023-05-07T01:03:53;98881.00;;;15.30
68012;BMP180;54794;48.348;7.878;2023-05-07T01:06:23;98877.00;;;15.10
68012;BMP180;54794;48.348;7.878;2023-05-07T01:08:53;98873.00;;;15.10
68012;BMP180;54794;48.348;7.878;2023-05-07T01:11:23;98867.00;;;15.30
68012;BMP180;54794;48.348;7.878;2023-05-07T01:13:52;98875.00;;;15.30
68012;BMP180;54794;48.348;7.878;2023-05-07T01:16:20;98872.00;;;15.50
68012;BMP180;54794;48.348;7.878;2023-05-07T01:18:47;98881.00;;;15.10
68012;BMP180;54794;48.348;7.878;2023-05-07T01:21:17;98879.00;;;14.80
68012;BMP180;54794;48.348;7.878;2023-05-07T01:23:45;98879.00;;;14.80
68012;BMP180;54794;48.348;7.878;2023-05-07T01:26:12;98887.00;;;14.70
68012;BMP180;54794;48.348;7.878;2023-05-07T01:28:40;98882.00;;;14.90
68012;BMP180;54794;48.348;7.878;2023-05-07T01:31:08;98885.00;;;14.80
68012;BMP180;54794;48.348;7.878;2023-05-07T01:33:43;98879.00;;;14.70
68012;BMP180;54794;48.348;7.878;2023-05-07T01:36:32;98879.00;;;15.20
68012;BMP180;54794;48.348;7.878;2023-05-07T01:39:00;98880.00;;;14.80
68012;BMP180;54794;48.348;7.878;2023-05-07T01:41:41;98877.00;;;15.00
68012;BMP180;54794;48.348;7.878;2023-05-07T01:44:13;98866.00;;;14.70
68012;BMP180;54794;48.348;7.878;2023-05-07T01:46:40;98867.00;;;14.60
68012;BMP180;54794;48.348;7.878;2023-05-07T01:49:08;98868.00;;;14.70
68012;BMP180;54794;48.348;7.878;2023-05-07T01:51:36;98869.00;;;14.60
68012;BMP180;54794;48.348;7.878;2023-05-07T01:54:03;98877.00;;;14.60
68012;BMP180;54794;48.348;7.878;2023-05-07T01:56:31;98875.00;;;14.70
68012;BMP180;54794;48.348;7.878;2023-05-07T01:58:58;98870.00;;;15.00
68012;BMP180;54794;48.348;7.878;2023-05-07T02:01:25;98870.00;;;14.50
68012;BMP180;54794;48.348;7.878;2023-05-07T02:03:56;98878.00;;;14.60
68012;BMP180;54794;48.348;7.878;2023-05-07T02:06:23;98880.00;;;15.00
68012;BMP180;54794;48.348;7.878;2023-05-07T02:08:51;98880.00;;;14.90
68012;BMP180;54794;48.348;7.878;2023-05-07T02:11:18;98879.00;;;15.00
68012;BMP180;54794;48.348;7.878;2023-05-07T02:13:44;98885.00;;;14.90
68012;BMP180;54794;48.348;7.878;2023-05-07T02:16:12;98883.00;;;15.00
68012;BMP180;54794;48.348;7.878;2023-05-07T02:18:46;98883.00;;;14.80
68012;BMP180;54794;48.348;7.878;2023-05-07T02:21:13;98881.00;;;14.90
68012;BMP180;54794;48.348;7.878;2023-05-07T02:23:40;98882.00;;;14.80
68012;BMP180;54794;48.348;7.878;2023-05-07T02:26:07;98879.00;;;14.90
68012;BMP180;54794;48.348;7.878;2023-05-07T02:28:34;98876.00;;;15.10
68012;BMP180;54794;48.348;7.878;2023-05-07T02:31:04;98885.00;;;14.70
68012;BMP180;54794;48.348;7.878;2023-05-07T02:33:31;98875.00;;;14.70
68012;BMP180;54794;48.348;7.878;2023-05-07T02:36:07;98873.00;;;14.70
68012;BMP180;54794;48.348;7.878;2023-05-07T02:38:34;98872.00;;;14.80
68012;BMP180;54794;48.348;7.878;2023-05-07T02:41:01;98861.00;;;15.00
68012;BMP180;54794;48.348;7.878;2023-05-07T02:43:28;98873.00;;;15.30
68012;BMP180;54794;48.348;7.878;2023-05-07T02:46:08;98875.00;;;14.80
68012;BMP180;54794;48.348;7.878;2023-05-07T02:48:35;98873.00;;;14.80
68012;BMP180;54794;48.348;7.878;2023-05-07T02:51:03;98871.00;;;14.50
68012;BMP180;54794;48.348;7.878;2023-05-07T02:53:32;98869.00;;;14.60
68012;BMP180;54794;48.348;7.878;2023-05-07T02:56:01;98861.00;;;14.90
68012;BMP180;54794;48.348;7.878;2023-05-07T02:58:28;98857.00;;;15.00
68012;BMP180;54794;48.348;7.878;2023-05-07T03:00:55;98868.00;;;15.00
68012;BMP180;54794;48.348;7.878;2023-05-07T03:03:22;98859.00;;;14.90
68012;BMP180;54794;48.348;7.878;2023-05-07T03:05:49;98861.00;;;14.90
68012;BMP180;54794;48.348;7.878;2023-05-07T03:08:16;98853.00;;;14.90
68012;BMP180;54794;48.348;7.878;2023-05-07T03:10:43;98864.00;;;14.80
68012;BMP180;54794;48.348;7.878;2023-05-07T03:13:10;98855.00;;;15.00
68012;BMP180;54794;48.348;7.878;2023-05-07T03:15:37;98858.00;;;14.90
68012;BMP180;54794;48.348;7.878;2023-05-07T03:18:04;98867.00;;;15.00
68012;BMP180;54794;48.348;7.878;2023-05-07T03:20:31;98863.00;;;14.50
68012;BMP180;54794;48.348;7.878;2023-05-07T03:22:59;98862.00;;;14.40
68012;BMP180;54794;48.348;7.878;2023-05-07T03:25:26;98861.00;;;14.30
68012;BMP180;54794;48.348;7.878;2023-05-07T03:27:52;98865.00;;;14.50
68012;BMP180;54794;48.348;7.878;2023-05-07T03:30:20;98859.00;;;14.40
68012;BMP180;54794;48.348;7.878;2023-05-07T03:32:47;98863.00;;;14.80
68012;BMP180;54794;48.348;7.878;2023-05-07T03:35:16;98868.00;;;14.60
68012;BMP180;54794;48.348;7.878;2023-05-07T03:37:43;98862.00;;;14.20
68012;BMP180;54794;48.348;7.878;2023-05-07T03:40:11;98871.00;;;14.30
68012;BMP180;54794;48.348;7.878;2023-05-07T03:42:40;98876.00;;;14.30
68012;BMP180;54794;48.348;7.878;2023-05-07T03:45:08;98871.00;;;14.50
68012;BMP180;54794;48.348;7.878;2023-05-07T03:47:35;98875.00;;;14.60
68012;BMP180;54794;48.348;7.878;2023-05-07T03:50:02;98876.00;;;14.40
68012;BMP180;54794;48.348;7.878;2023-05-07T03:52:34;98883.00;;;14.20
68012;BMP180;54794;48.348;7.878;2023-05-07T03:55:35;98876.00;;;14.30
68012;BMP180;54794;48.348;7.878;2023-05-07T03:58:02;98882.00;;;14.30
68012;BMP180;54794;48.348;7.878;2023-05-07T04:00:29;98896.00;;;14.60
68012;BMP180;54794;48.348;7.878;2023-05-07T04:03:05;98893.00;;;14.50
68012;BMP180;54794;48.348;7.878;2023-05-07T04:05:32;98885.00;;;14.50
68012;BMP180;54794;48.348;7.878;2023-05-07T04:08:00;98883.00;;;14.20
68012;BMP180;54794;48.348;7.878;2023-05-07T04:10:29;98891.00;;;14.00
68012;BMP180;54794;48.348;7.878;2023-05-07T04:12:56;98892.00;;;14.40
68012;BMP180;54794;48.348;7.878;2023-05-07T04:15:45;98894.00;;;14.40
68012;BMP180;54794;48.348;7.878;2023-05-07T04:18:15;98888.00;;;14.40
68012;BMP180;54794;48.348;7.878;2023-05-07T04:20:42;98896.00;;;14.50
68012;BMP180;54794;48.348;7.878;2023-05-07T04:23:09;98907.00;;;14.30
68012;BMP180;54794;48.348;7.878;2023-05-07T04:25:36;98903.00;;;14.00
68012;BMP180;54794;48.348;7.878;2023-05-07T04:28:03;98901.00;;;14.00
68012;BMP180;54794;48.348;7.878;2023-05-07T04:30:30;98906.00;;;14.20
68012;BMP180;54794;48.348;7.878;2023-05-07T04:32:57;98904.00;;;14.20
68012;BMP180;54794;48.348;7.878;2023-05-07T04:35:24;98906.00;;;14.40
68012;BMP180;54794;48.348;7.878;2023-05-07T04:37:51;98907.00;;;14.40
68012;BMP180;54794;48.348;7.878;2023-05-07T04:40:18;98909.00;;;14.50
68012;BMP180;54794;48.348;7.878;2023-05-07T04:42:45;98906.00;;;14.20
68012;BMP180;54794;48.348;7.878;2023-05-07T04:45:12;98911.00;;;14.40
68012;BMP180;54794;48.348;7.878;2023-05-07T04:47:39;98915.00;;;14.20
68012;BMP180;54794;48.348;7.878;2023-05-07T04:50:07;98925.00;;;14.40
68012;BMP180;54794;48.348;7.878;2023-05-07T04:52:35;98932.00;;;14.60
68012;BMP180;54794;48.348;7.878;2023-05-07T04:55:02;98926.00;;;14.60
68012;BMP180;54794;48.348;7.878;2023-05-07T04:57:29;98928.00;;;14.60
68012;BMP180;54794;48.348;7.878;2023-05-07T04:59:57;98935.00;;;14.70
68012;BMP180;54794;48.348;7.878;2023-05-07T05:02:24;98938.00;;;14.70
68012;BMP180;54794;48.348;7.878;2023-05-07T05:04:50;98931.00;;;14.50
68012;BMP180;54794;48.348;7.878;2023-05-07T05:07:18;98932.00;;;14.50
68012;BMP180;54794;48.348;7.878;2023-05-07T05:10:16;98943.00;;;14.60
68012;BMP180;54794;48.348;7.878;2023-05-07T05:16:21;98949.00;;;14.60
68012;BMP180;54794;48.348;7.878;2023-05-07T05:19:04;98948.00;;;14.30
68012;BMP180;54794;48.348;7.878;2023-05-07T05:21:59;98950.00;;;14.60
68012;BMP180;54794;48.348;7.878;2023-05-07T05:24:48;98944.00;;;14.70
68012;BMP180;54794;48.348;7.878;2023-05-07T05:27:36;98946.00;;;15.00
68012;BMP180;54794;48.348;7.878;2023-05-07T05:30:19;98957.00;;;15.10
68012;BMP180;54794;48.348;7.878;2023-05-07T05:37:05;98960.00;;;14.70
68012;BMP180;54794;48.348;7.878;2023-05-07T05:40:03;98966.00;;;14.90
68012;BMP180;54794;48.348;7.878;2023-05-07T05:43:00;98956.00;;;15.00
68012;BMP180;54794;48.348;7.878;2023-05-07T05:46:20;98962.00;;;15.10
68012;BMP180;54794;48.348;7.878;2023-05-07T05:49:17;98951.00;;;15.00
68012;BMP180;54794;48.348;7.878;2023-05-07T05:55:15;98965.00;;;15.40
68012;BMP180;54794;48.348;7.878;2023-05-07T05:57:45;98967.00;;;15.70
68012;BMP180;54794;48.348;7.878;2023-05-07T06:00:58;98967.00;;;15.90
68012;BMP180;54794;48.348;7.878;2023-05-07T06:07:10;98966.00;;;16.00
68012;BMP180;54794;48.348;7.878;2023-05-07T06:09:57;98971.00;;;16.10
68012;BMP180;54794;48.348;7.878;2023-05-07T06:12:41;98970.00;;;16.10
68012;BMP180;54794;48.348;7.878;2023-05-07T06:15:17;98975.00;;;16.30
68012;BMP180;54794;48.348;7.878;2023-05-07T06:18:43;98990.00;;;16.60
68012;BMP180;54794;48.348;7.878;2023-05-07T06:21:42;98986.00;;;16.70
68012;BMP180;54794;48.348;7.878;2023-05-07T06:24:26;98985.00;;;16.80
68012;BMP180;54794;48.348;7.878;2023-05-07T06:27:18;98992.00;;;16.90
68012;BMP180;54794;48.348;7.878;2023-05-07T06:30:40;98985.00;;;17.00
68012;BMP180;54794;48.348;7.878;2023-05-07T06:36:13;98986.00;;;17.00
68012;BMP180;54794;48.348;7.878;2023-05-07T06:38:49;98982.00;;;17.30
68012;BMP180;54794;48.348;7.878;2023-05-07T06:41:53;98995.00;;;17.20
68012;BMP180;54794;48.348;7.878;2023-05-07T06:44:58;98990.00;;;16.90
68012;BMP180;54794;48.348;7.878;2023-05-07T06:47:49;99002.00;;;16.90
68012;BMP180;54794;48.348;7.878;2023-05-07T06:50:46;98991.00;;;16.90
68012;BMP180;54794;48.348;7.878;2023-05-07T06:53:31;98996.00;;;17.50
68012;BMP180;54794;48.348;7.878;2023-05-07T06:56:36;98989.00;;;17.40
68012;BMP180;54794;48.348;7.878;2023-05-07T06:59:20;98975.00;;;17.90
68012;BMP180;54794;48.348;7.878;2023-05-07T07:02:00;98988.00;;;18.00
68012;BMP180;54794;48.348;7.878;2023-05-07T07:04:57;98994.00;;;17.60
68012;BMP180;54794;48.348;7.878;2023-05-07T07:07:37;98990.00;;;17.40
68012;BMP180;54794;48.348;7.878;2023-05-07T07:13:19;98985.00;;;17.90
68012;BMP180;54794;48.348;7.878;2023-05-07T07:16:12;98985.00;;;17.90
68012;BMP180;54794;48.348;7.878;2023-05-07T07:19:07;98983.00;;;17.80
68012;BMP180;54794;48.348;7.878;2023-05-07T07:22:12;98985.00;;;17.80
68012;BMP180;54794;48.348;7.878;2023-05-07T07:24:44;98969.00;;;17.60
68012;BMP180;54794;48.348;7.878;2023-05-07T07:27:50;98972.00;;;17.70
68012;BMP180;54794;48.348;7.878;2023-05-07T07:30:42;98996.00;;;17.80
68012;BMP180;54794;48.348;7.878;2023-05-07T07:33:31;98982.00;;;18.40
68012;BMP180;54794;48.348;7.878;2023-05-07T07:36:23;98983.00;;;19.00
68012;BMP180;54794;48.348;7.878;2023-05-07T07:42:18;98974.00;;;18.80
68012;BMP180;54794;48.348;7.878;2023-05-07T07:44:55;98981.00;;;18.80
68012;BMP180;54794;48.348;7.878;2023-05-07T07:47:42;98979.00;;;18.70
68012;BMP180;54794;48.348;7.878;2023-05-07T07:50:25;98987.00;;;19.00
68012;BMP180;54794;48.348;7.878;2023-05-07T07:53:11;98989.00;;;18.50
68012;BMP180;54794;48.348;7.878;2023-05-07T07:55:43;98973.00;;;19.20
68012;BMP180;54794;48.348;7.878;2023-05-07T07:58:36;98980.00;;;19.30
68012;BMP180;54794;48.348;7.878;2023-05-07T08:01:23;98990.00;;;19.30
68012;BMP180;54794;48.348;7.878;2023-05-07T08:07:18;98988.00;;;19.80
68012;BMP180;54794;48.348;7.878;2023-05-07T08:10:37;98994.00;;;19.50
68012;BMP180;54794;48.348;7.878;2023-05-07T08:13:39;98991.00;;;20.00
68012;BMP180;54794;48.348;7.878;2023-05-07T08:16:20;98982.00;;;20.60
68012;BMP180;54794;48.348;7.878;2023-05-07T08:19:40;98981.00;;;20.80
68012;BMP180;54794;48.348;7.878;2023-05-07T08:22:26;98985.00;;;20.40
68012;BMP180;54794;48.348;7.878;2023-05-07T08:25:02;98978.00;;;20.20
68012;BMP180;54794;48.348;7.878;2023-05-07T08:27:43;98984.00;;;20.30
68012;BMP180;54794;48.348;7.878;2023-05-07T08:30:33;98983.00;;;20.00
68012;BMP180;54794;48.348;7.878;2023-05-07T08:33:49;98984.00;;;20.00
68012;BMP180;54794;48.348;7.878;2023-05-07T08:36:26;98988.00;;;20.00
68012;BMP180;54794;48.348;7.878;2023-05-07T08:39:13;98984.00;;;20.30
68012;BMP180;54794;48.348;7.878;2023-05-07T08:42:09;98984.00;;;20.60
68012;BMP180;54794;48.348;7.878;2023-05-07T08:45:09;98988.00;;;20.70
68012;BMP180;54794;48.348;7.878;2023-05-07T08:47:58;98984.00;;;20.70
68012;BMP180;54794;48.348;7.878;2023-05-07T08:51:00;98996.00;;;21.00
68012;BMP180;54794;48.348;7.878;2023-05-07T08:54:02;98992.00;;;21.20
68012;BMP180;54794;48.348;7.878;2023-05-07T08:59:53;98988.00;;;21.50
68012;BMP180;54794;48.348;7.878;2023-05-07T09:03:40;98984.00;;;21.10
68012;BMP180;54794;48.348;7.878;2023-05-07T09:06:48;98989.00;;;21.60
68012;BMP180;54794;48.348;7.878;2023-05-07T09:09:32;98986.00;;;21.60
68012;BMP180;54794;48.348;7.878;2023-05-07T09:12:17;98979.00;;;21.40
68012;BMP180;54794;48.348;7.878;2023-05-07T09:15:12;98983.00;;;21.20
68012;BMP180;54794;48.348;7.878;2023-05-07T09:17:45;98985.00;;;21.50
68012;BMP180;54794;48.348;7.878;2023-05-07T09:20:34;98992.00;;;21.50
68012;BMP180;54794;48.348;7.878;2023-05-07T09:23:36;98997.00;;;21.60
68012;BMP180;54794;48.348;7.878;2023-05-07T09:26:21;98987.00;;;22.00
68012;BMP180;54794;48.348;7.878;2023-05-07T09:29:24;98982.00;;;21.70
68012;BMP180;54794;48.348;7.878;2023-05-07T09:32:16;98978.00;;;21.90
68012;BMP180;54794;48.348;7.878;2023-05-07T09:35:01;98984.00;;;21.70
68012;BMP180;54794;48.348;7.878;2023-05-07T09:38:03;98972.00;;;21.80
68012;BMP180;54794;48.348;7.878;2023-05-07T09:41:01;98987.00;;;22.40
68012;BMP180;54794;48.348;7.878;2023-05-07T09:43:57;98972.00;;;21.80
68012;BMP180;54794;48.348;7.878;2023-05-07T09:46:46;98979.00;;;22.40
68012;BMP180;54794;48.348;7.878;2023-05-07T09:49:37;98978.00;;;22.60
68012;BMP180;54794;48.348;7.878;2023-05-07T09:52:18;98979.00;;;22.30
68012;BMP180;54794;48.348;7.878;2023-05-07T09:54:53;98993.00;;;22.50
68012;BMP180;54794;48.348;7.878;2023-05-07T09:57:27;98987.00;;;22.20
68012;BMP180;54794;48.348;7.878;2023-05-07T10:00:13;98982.00;;;22.40
68012;BMP180;54794;48.348;7.878;2023-05-07T10:03:08;98985.00;;;21.90
68012;BMP180;54794;48.348;7.878;2023-05-07T10:05:53;98995.00;;;22.60
68012;BMP180;54794;48.348;7.878;2023-05-07T10:08:47;98994.00;;;22.30
68012;BMP180;54794;48.348;7.878;2023-05-07T10:14:24;98993.00;;;22.60
68012;BMP180;54794;48.348;7.878;2023-05-07T10:17:08;98993.00;;;22.80
68012;BMP180;54794;48.348;7.878;2023-05-07T10:19:59;98996.00;;;22.90
68012;BMP180;54794;48.348;7.878;2023-05-07T10:23:05;99005.00;;;23.20
68012;BMP180;54794;48.348;7.878;2023-05-07T10:25:58;99003.00;;;23.00
68012;BMP180;54794;48.348;7.878;2023-05-07T10:28:50;99009.00;;;23.20
68012;BMP180;54794;48.348;7.878;2023-05-07T10:37:41;98994.00;;;23.40
68012;BMP180;54794;48.348;7.878;2023-05-07T10:40:10;98991.00;;;23.20
68012;BMP180;54794;48.348;7.878;2023-05-07T10:42:37;98986.00;;;23.50
68012;BMP180;54794;48.348;7.878;2023-05-07T10:45:14;98998.00;;;23.00
68012;BMP180;54794;48.348;7.878;2023-05-07T10:51:21;99000.00;;;23.20
68012;BMP180;54794;48.348;7.878;2023-05-07T10:56:40;98990.00;;;23.30
68012;BMP180;54794;48.348;7.878;2023-05-07T11:04:25;98994.00;;;23.10
68012;BMP180;54794;48.348;7.878;2023-05-07T11:15:09;99006.00;;;24.40
68012;BMP180;54794;48.348;7.878;2023-05-07T11:17:57;99003.00;;;24.30
68012;BMP180;54794;48.348;7.878;2023-05-07T11:26:27;99015.00;;;24.30
68012;BMP180;54794;48.348;7.878;2023-05-07T11:29:39;99022.00;;;23.70
68012;BMP180;54794;48.348;7.878;2023-05-07T11:32:41;99014.00;;;23.90
68012;BMP180;54794;48.348;7.878;2023-05-07T11:35:23;99010.00;;;24.10
68012;BMP180;54794;48.348;7.878;2023-05-07T11:38:04;99019.00;;;23.30
68012;BMP180;54794;48.348;7.878;2023-05-07T11:40:31;99018.00;;;23.00
68012;BMP180;54794;48.348;7.878;2023-05-07T11:42:58;99023.00;;;23.20
68012;BMP180;54794;48.348;7.878;2023-05-07T11:45:25;99024.00;;;23.20
68012;BMP180;54794;48.348;7.878;2023-05-07T11:47:52;99023.00;;;23.60
68012;BMP180;54794;48.348;7.878;2023-05-07T11:50:19;99028.00;;;23.70
68012;BMP180;54794;48.348;7.878;2023-05-07T11:52:55;99022.00;;;22.70
68012;BMP180;54794;48.348;7.878;2023-05-07T11:55:27;99031.00;;;22.60
68012;BMP180;54794;48.348;7.878;2023-05-07T11:57:54;99028.00;;;22.70
68012;BMP180;54794;48.348;7.878;2023-05-07T12:00:22;99022.00;;;22.70
68012;BMP180;54794;48.348;7.878;2023-05-07T12:02:49;99024.00;;;22.40
68012;BMP180;54794;48.348;7.878;2023-05-07T12:05:17;99022.00;;;22.20
68012;BMP180;54794;48.348;7.878;2023-05-07T12:07:44;99029.00;;;22.20
68012;BMP180;54794;48.348;7.878;2023-05-07T12:10:11;99039.00;;;22.10
68012;BMP180;54794;48.348;7.878;2023-05-07T12:12:46;99036.00;;;22.60
68012;BMP180;54794;48.348;7.878;2023-05-07T12:15:22;99047.00;;;22.80
68012;BMP180;54794;48.348;7.878;2023-05-07T12:17:50;99036.00;;;23.00
68012;BMP180;54794;48.348;7.878;2023-05-07T12:20:19;99037.00;;;22.90
68012;BMP180;54794;48.348;7.878;2023-05-07T12:22:47;99037.00;;;22.40
68012;BMP180;54794;48.348;7.878;2023-05-07T12:25:19;99038.00;;;23.00
68012;BMP180;54794;48.348;7.878;2023-05-07T12:27:52;99033.00;;;22.90
68012;BMP180;54794;48.348;7.878;2023-05-07T12:30:19;99038.00;;;23.00
68012;BMP180;54794;48.348;7.878;2023-05-07T12:32:46;99043.00;;;23.30
68012;BMP180;54794;48.348;7.878;2023-05-07T12:35:13;99038.00;;;23.10
68012;BMP180;54794;48.348;7.878;2023-05-07T12:37:41;99047.00;;;23.10
68012;BMP180;54794;48.348;7.878;2023-05-07T12:40:10;99041.00;;;23.00
68012;BMP180;54794;48.348;7.878;2023-05-07T12:42:39;99047.00;;;22.40
68012;BMP180;54794;48.348;7.878;2023-05-07T12:45:15;99052.00;;;22.50
68012;BMP180;54794;48.348;7.878;2023-05-07T12:47:45;99052.00;;;22.80
68012;BMP180;54794;48.348;7.878;2023-05-07T12:50:14;99062.00;;;22.60
68012;BMP180;54794;48.348;7.878;2023-05-07T12:52:47;99057.00;;;22.40
68012;BMP180;54794;48.348;7.878;2023-05-07T12:55:16;99054.00;;;22.50
68012;BMP180;54794;48.348;7.878;2023-05-07T12:57:48;99060.00;;;22.40
68012;BMP180;54794;48.348;7.878;2023-05-07T13:00:16;99065.00;;;22.00
68012;BMP180;54794;48.348;7.878;2023-05-07T13:02:45;99061.00;;;22.50
68012;BMP180;54794;48.348;7.878;2023-05-07T13:05:12;99067.00;;;22.50
68012;BMP180;54794;48.348;7.878;2023-05-07T13:07:40;99061.00;;;22.70
68012;BMP180;54794;48.348;7.878;2023-05-07T13:10:08;99073.00;;;22.30
68012;BMP180;54794;48.348;7.878;2023-05-07T13:12:35;99076.00;;;22.30
68012;BMP180;54794;48.348;7.878;2023-05-07T13:15:02;99072.00;;;22.00
68012;BMP180;54794;48.348;7.878;2023-05-07T13:17:30;99078.00;;;22.00
68012;BMP180;54794;48.348;7.878;2023-05-07T13:19:58;99067.00;;;22.00
68012;BMP180;54794;48.348;7.878;2023-05-07T13:22:26;99075.00;;;22.30
68012;BMP180;54794;48.348;7.878;2023-05-07T13:24:53;99068.00;;;21.90
68012;BMP180;54794;48.348;7.878;2023-05-07T13:27:20;99067.00;;;22.10
68012;BMP180;54794;48.348;7.878;2023-05-07T13:30:04;99066.00;;;22.10
68012;BMP180;54794;48.348;7.878;2023-05-07T13:32:41;99066.00;;;22.10
68012;BMP180;54794;48.348;7.878;2023-05-07T13:35:25;99064.00;;;22.40
68012;BMP180;54794;48.348;7.878;2023-05-07T13:41:19;99061.00;;;22.60
68012;BMP180;54794;48.348;7.878;2023-05-07T13:43:58;99070.00;;;22.40
68012;BMP180;54794;48.348;7.878;2023-05-07T13:47:12;99057.00;;;23.00
68012;BMP180;54794;48.348;7.878;2023-05-07T13:49:57;99064.00;;;22.50
68012;BMP180;54794;48.348;7.878;2023-05-07T13:52:27;99060.00;;;22.20
68012;BMP180;54794;48.348;7.878;2023-05-07T13:55:17;99065.00;;;22.60
68012;BMP180;54794;48.348;7.878;2023-05-07T13:58:02;99069.00;;;22.40
68012;BMP180;54794;48.348;7.878;2023-05-07T14:00:46;99067.00;;;22.30
68012;BMP180;54794;48.348;7.878;2023-05-07T14:03:21;99061.00;;;22.10
68012;BMP180;54794;48.348;7.878;2023-05-07T14:05:54;99076.00;;;21.90
68012;BMP180;54794;48.348;7.878;2023-05-07T14:08:35;99063.00;;;21.10
68012;BMP180;54794;48.348;7.878;2023-05-07T14:11:04;99065.00;;;21.80
68012;BMP180;54794;48.348;7.878;2023-05-07T14:13:42;99065.00;;;21.90
68012;BMP180;54794;48.348;7.878;2023-05-07T14:16:12;99058.00;;;21.70
68012;BMP180;54794;48.348;7.878;2023-05-07T14:18:50;99067.00;;;21.40
68012;BMP180;54794;48.348;7.878;2023-05-07T14:21:26;99056.00;;;21.30
68012;BMP180;54794;48.348;7.878;2023-05-07T14:23:56;99065.00;;;21.70
68012;BMP180;54794;48.348;7.878;2023-05-07T14:26:30;99052.00;;;21.30
68012;BMP180;54794;48.348;7.878;2023-05-07T14:29:09;99056.00;;;21.30
68012;BMP180;54794;48.348;7.878;2023-05-07T14:31:42;99044.00;;;21.50
68012;BMP180;54794;48.348;7.878;2023-05-07T14:34:24;99042.00;;;21.70
68012;BMP180;54794;48.348;7.878;2023-05-07T14:37:06;99036.00;;;21.40
68012;BMP180;54794;48.348;7.878;2023-05-07T14:40:11;99038.00;;;21.50
68012;BMP180;54794;48.348;7.878;2023-05-07T14:42:46;99030.00;;;21.70
68012;BMP180;54794;48.348;7.878;2023-05-07T14:45:35;99040.00;;;21.50
68012;BMP180;54794;48.348;7.878;2023-05-07T14:48:16;99048.00;;;21.60
68012;BMP180;54794;48.348;7.878;2023-05-07T14:51:00;99050.00;;;22.00
68012;BMP180;54794;48.348;7.878;2023-05-07T14:53:46;99047.00;;;22.20
68012;BMP180;54794;48.348;7.878;2023-05-07T14:56:35;99044.00;;;22.30
68012;BMP180;54794;48.348;7.878;2023-05-07T14:59:06;99057.00;;;22.90
68012;BMP180;54794;48.348;7.878;2023-05-07T15:01:35;99052.00;;;22.30
68012;BMP180;54794;48.348;7.878;2023-05-07T15:04:20;99047.00;;;22.60
68012;BMP180;54794;48.348;7.878;2023-05-07T15:07:17;99059.00;;;22.20
68012;BMP180;54794;48.348;7.878;2023-05-07T15:10:13;99056.00;;;22.40
68012;BMP180;54794;48.348;7.878;2023-05-07T15:13:00;99047.00;;;21.70
68012;BMP180;54794;48.348;7.878;2023-05-07T15:15:49;99061.00;;;21.70
68012;BMP180;54794;48.348;7.878;2023-05-07T15:18:29;99066.00;;;21.80
68012;BMP180;54794;48.348;7.878;2023-05-07T15:21:18;99063.00;;;21.40
68012;BMP180;54794;48.348;7.878;2023-05-07T15:26:57;99058.00;;;21.80
68012;BMP180;54794;48.348;7.878;2023-05-07T15:29:29;99061.00;;;22.00
68012;BMP180;54794;48.348;7.878;2023-05-07T15:32:00;99052.00;;;21.70
68012;BMP180;54794;48.348;7.878;2023-05-07T15:34:49;99057.00;;;22.10
68012;BMP180;54794;48.348;7.878;2023-05-07T15:37:34;99059.00;;;21.70
68012;BMP180;54794;48.348;7.878;2023-05-07T15:40:39;99054.00;;;22.30
68012;BMP180;54794;48.348;7.878;2023-05-07T15:43:20;99065.00;;;22.20
68012;BMP180;54794;48.348;7.878;2023-05-07T15:46:12;99064.00;;;22.70
68012;BMP180;54794;48.348;7.878;2023-05-07T15:49:13;99059.00;;;22.90
68012;BMP180;54794;48.348;7.878;2023-05-07T15:52:20;99069.00;;;22.70
68012;BMP180;54794;48.348;7.878;2023-05-07T15:54:58;99065.00;;;22.60
68012;BMP180;54794;48.348;7.878;2023-05-07T15:58:01;99067.00;;;22.60
68012;BMP180;54794;48.348;7.878;2023-05-07T16:01:22;99076.00;;;22.20
68012;BMP180;54794;48.348;7.878;2023-05-07T16:04:03;99074.00;;;22.30
68012;BMP180;54794;48.348;7.878;2023-05-07T16:10:53;99061.00;;;22.50
68012;BMP180;54794;48.348;7.878;2023-05-07T16:14:18;99068.00;;;22.90
68012;BMP180;54794;48.348;7.878;2023-05-07T16:16:45;99066.00;;;23.00
68012;BMP180;54794;48.348;7.878;2023-05-07T16:20:01;99063.00;;;22.70
68012;BMP180;54794;48.348;7.878;2023-05-07T16:30:29;99068.00;;;22.10
68012;BMP180;54794;48.348;7.878;2023-05-07T16:34:01;99070.00;;;22.60
68012;BMP180;54794;48.348;7.878;2023-05-07T16:37:59;99071.00;;;22.00